Chicago Midway International Airport
KMDW : now visible

Airfield :











YOU CAN JOIN US ON...

 
LOGIN :

Register | Disclaimer

   EN    FR    IT 

 









Legend :    VFR   Marginal VFR   IFR   Intensive IFR   Very Intensive IFR
Visi :
Ceiling :
>= 8 km
>= 3000ft
5 to 8 km
1000 to 3000 ft
1500m to 5 km
500 to 1000 ft
800 to 1500m
200 to 500 ft
< 800m
< 200 ft
Symbols :   Thunderstorms  Fog  Heavy snow  Heavy precipitations  Wind > 20 kt






- Airport Elevation : 620 ft
- IATA code : MDW


KMDW - Chicago Midway International

CURRENT METAR :
  • 250805Z 22007KT 2 1/2SM -SN BR BKN005 OVC020 01/00 A2978 RMK AO2 P0000 T00060000

EXPIRED METARs :
  • 250653Z 22006KT 2 1/2SM -SN BR OVC005 01/01 A2977 RMK AO2 RAE45 SLP090 P0002 T00060006
  • 250635Z 22005KT 2 1/2SM -RASN BR OVC006 01/01 A2977 RMK AO2 P0001 T00060006
  • 250553Z 23007KT 3SM -RASN BR OVC005 01/01 A2978 RMK AO2 RAB0458SNB10 SLP094 P0003 60012 T00110011 10033 20011 400390011 50001
  • 250543Z 22006KT 2 1/2SM -RASN BR OVC003 01/01 A2979 RMK AO2 RAB0458SNB10 P0002 T00110011

TAF KMDW
Valid from the 25 at 06:00 until the 26 at 12:00 UTC


250532Z 2506/2612 25005KT 3SM -RASN BR OVC004
FM250700 25007KT 3SM -SN BR OVC004
FM251000 26008KT 5SM -SN OVC004
FM251500 27012KT 1 1/2SM -SN OVC006
FM252200 27011KT 5SM -SNDZ OVC007
FM260500 28011KT P6SM OVC008



MET'MAP, your aeronautical weather chart ! - Copyright ORBIFLY December 2007 - Disclaimer

ORBIFLY MET'MAP TEAM :

Programming & Development : Alexandra Zaïnal
Concept & original design : Baudouin d'Aumeries
Assistance for programming : Marc-Olivier Méhu
Technical & hardware support : Manuel Goepfert

Contact : metmap@orbifly.com




SOURCES & CREDITS :

   NOAA       Earth
Advisory